KHTS/HTS METAR and TAF weather

Enter ICAO airport designator
Station Type Date Time Source
KHTS METAR 2021/06/24 04:51 UTC NOAA

KHTS 240451Z 00000KT 10SM CLR 16/13 A3018 RMK AO2 SLP216 T01560128 402440083


Station Type Date Time Source
KHTS Decoded METAR 2021/06/24 04:51 UTC NOAA

TRI-STATE AIRPORT, WV, United States (KHTS) 38-22N 082-33W 254M
Jun 24, 2021 - 12:51 AM EDT / 2021.06.24 0451 UTC
Wind: Calm:0
Visibility: 10 mile(s):0
Sky conditions: clear
Temperature: 60.1 F (15.6 C)
Dew Point: 55.0 F (12.8 C)
Relative Humidity: 83%
Pressure (altimeter): 30.18 in. Hg (1022 hPa)
ob: KHTS 240451Z 00000KT 10SM CLR 16/13 A3018 RMK AO2 SLP216 T01560128 402440083
cycle: 5

Station Type Date Time Source
KHTS TAF 2021/06/24 03:51 UTC NOAA

TAF
AMD KHTS 240248Z 2403/2424 08003KT P6SM SKC
FM240400 00000KT P6SM SKC
FM241200 16004KT P6SM SKC

Example: see airport list